Time;durP1;ratioP1;P1;durP2;ratioP2;P2;SDS_P1;SDS_P2;PMS_P1;PMS_P2;Temp;Humidity;BMP_temperature;BMP_pressure;BME280_temperature;BME280_humidity;BME280_pressure;Samples;Min_cycle;Max_cycle;Signal;HPM_P1;HPM_P2
2023/03/02 00:01:31;;;;;;;;;;;8.40;99.90;;;;;;5007380;28;19954;-65
2023/03/02 00:03:58;;;;;;;;;;;8.40;99.90;;;;;;5004340;28;19921;-66
2023/03/02 00:06:25;;;;;;;;;;;8.40;99.90;;;;;;4994988;28;20367;-66
2023/03/02 00:08:51;;;;;;;;;;;8.30;99.90;;;;;;4993107;28;19913;-65
2023/03/02 00:11:17;;;;;;;;;;;8.30;99.90;;;;;;4995613;28;19920;-66
2023/03/02 00:13:43;;;;;;;;;;;8.30;99.90;;;;;;4992448;28;19925;-61
2023/03/02 00:16:09;;;;;;;;;;;8.30;99.90;;;;;;5007118;28;19914;-64
2023/03/02 00:18:34;;;;;;;;;;;8.20;99.90;;;;;;4992610;28;20025;-64
2023/03/02 00:21:00;;;;;;;;;;;8.20;99.90;;;;;;4993023;28;19941;-66
2023/03/02 00:23:26;;;;;;;;;;;8.20;99.90;;;;;;4992243;28;19925;-65
2023/03/02 00:25:52;;;;;;;;;;;8.20;99.90;;;;;;4992994;28;19924;-65
2023/03/02 00:28:17;;;;;;;;;;;8.20;99.90;;;;;;4990381;28;19970;-66
2023/03/02 00:30:43;;;;;;;;;;;8.20;99.90;;;;;;4995925;28;19925;-64
2023/03/02 00:33:09;;;;;;;;;;;8.20;99.90;;;;;;4993619;28;19917;-68
2023/03/02 00:35:38;;;;;;;;;;;8.20;99.90;;;;;;4996822;28;19917;-66
2023/03/02 00:38:06;;;;;;;;;;;8.30;99.90;;;;;;4990541;28;19914;-65
2023/03/02 00:40:32;;;;;;;;;;;8.30;99.90;;;;;;4993935;28;19928;-65
2023/03/02 00:42:58;;;;;;;;;;;8.20;99.90;;;;;;4993333;28;19917;-64
2023/03/02 00:45:23;;;;;;;;;;;8.30;99.90;;;;;;4992262;28;20390;-65
2023/03/02 00:47:49;;;;;;;;;;;8.20;99.90;;;;;;4996107;28;19921;-65
2023/03/02 00:50:15;;;;;;;;;;;8.20;99.90;;;;;;5003800;28;19928;-66
2023/03/02 00:52:40;;;;;;;;;;;8.30;99.90;;;;;;4997550;28;20397;-66
2023/03/02 00:55:06;;;;;;;;;;;8.30;99.90;;;;;;4996706;28;19953;-65
2023/03/02 00:57:32;;;;;;;;;;;8.20;99.90;;;;;;4998833;28;19980;-64
2023/03/02 00:59:58;;;;;;;;;;;8.20;99.90;;;;;;5014580;28;19914;-65
2023/03/02 01:02:24;;;;;;;;;;;8.20;99.90;;;;;;5000515;28;20611;-64
2023/03/02 01:04:52;;;;;;;;;;;8.10;99.90;;;;;;4997004;28;19971;-64
2023/03/02 01:07:19;;;;;;;;;;;8.10;99.90;;;;;;4997110;28;19922;-62
2023/03/02 01:09:47;;;;;;;;;;;8.10;99.90;;;;;;4998134;28;20387;-61
2023/03/02 01:12:13;;;;;;;;;;;8.20;99.90;;;;;;5000717;28;19918;-65
2023/03/02 01:14:40;;;;;;;;;;;8.20;99.90;;;;;;4997035;28;19925;-68
2023/03/02 01:17:07;;;;;;;;;;;8.30;99.90;;;;;;4997709;28;19914;-65
2023/03/02 01:19:32;;;;;;;;;;;8.20;99.90;;;;;;4997619;28;19914;-65
2023/03/02 01:21:58;;;;;;;;;;;8.30;99.90;;;;;;5002863;28;20415;-66
2023/03/02 01:24:24;;;;;;;;;;;8.30;99.90;;;;;;4998158;28;19973;-65
2023/03/02 01:26:50;;;;;;;;;;;8.30;99.90;;;;;;5002838;28;19937;-64
2023/03/02 01:29:16;;;;;;;;;;;8.20;99.90;;;;;;5012896;28;20360;-63
2023/03/02 01:31:41;;;;;;;;;;;8.20;99.90;;;;;;4997365;28;19948;-66
2023/03/02 01:34:10;;;;;;;;;;;8.20;99.90;;;;;;4996792;28;20374;-65
2023/03/02 01:36:36;;;;;;;;;;;8.10;99.90;;;;;;4995642;28;19913;-69
2023/03/02 01:39:01;;;;;;;;;;;8.10;99.90;;;;;;4995294;28;20333;-65
2023/03/02 01:41:27;;;;;;;;;;;8.10;99.90;;;;;;5000756;28;19987;-65
2023/03/02 01:43:53;;;;;;;;;;;8.20;99.90;;;;;;4995624;28;20280;-65
2023/03/02 01:46:20;;;;;;;;;;;8.10;99.90;;;;;;5012891;28;19964;-64
2023/03/02 01:48:53;;;;;;;;;;;8.10;99.90;;;;;;4997328;28;19922;-63
2023/03/02 01:51:23;;;;;;;;;;;8.10;99.90;;;;;;4998228;28;19920;-66
2023/03/02 01:53:54;;;;;;;;;;;8.10;99.90;;;;;;4995551;28;19922;-65
2023/03/02 01:56:22;;;;;;;;;;;8.10;99.90;;;;;;4996465;28;20012;-66
2023/03/02 01:58:50;;;;;;;;;;;8.20;99.90;;;;;;4998468;28;20477;-66
2023/03/02 02:01:16;;;;;;;;;;;8.20;99.90;;;;;;5006958;28;20004;-65
2023/03/02 02:03:47;;;;;;;;;;;8.10;99.90;;;;;;5014769;28;21594;-66
2023/03/02 02:06:18;;;;;;;;;;;8.10;99.90;;;;;;5014502;28;20008;-66
2023/03/02 02:08:45;;;;;;;;;;;8.10;99.90;;;;;;4999699;28;19909;-63
2023/03/02 02:11:11;;;;;;;;;;;8.10;99.90;;;;;;4993248;28;19928;-65
2023/03/02 02:13:37;;;;;;;;;;;8.10;99.90;;;;;;4994664;28;19968;-66
2023/03/02 02:16:02;;;;;;;;;;;8.10;99.90;;;;;;4997936;28;19922;-65
2023/03/02 02:18:28;;;;;;;;;;;8.00;99.90;;;;;;4997841;28;19913;-65
2023/03/02 02:20:54;;;;;;;;;;;8.00;99.90;;;;;;5001269;28;19910;-64
2023/03/02 02:23:26;;;;;;;;;;;8.00;99.90;;;;;;4993065;28;19964;-64
2023/03/02 02:25:58;;;;;;;;;;;7.90;99.90;;;;;;4993415;28;20454;-66
2023/03/02 02:28:29;;;;;;;;;;;7.90;99.90;;;;;;4994232;28;20001;-63
2023/03/02 02:31:04;;;;;;;;;;;7.90;99.90;;;;;;4994692;28;20368;-64
2023/03/02 02:33:31;;;;;;;;;;;7.90;99.90;;;;;;4996431;28;20004;-61
2023/03/02 02:36:07;;;;;;;;;;;7.90;99.90;;;;;;4995460;28;19914;-61
2023/03/02 02:38:33;;;;;;;;;;;7.90;99.90;;;;;;5003927;28;19921;-63
2023/03/02 02:41:02;;;;;;;;;;;7.90;99.90;;;;;;5000339;28;19924;-65
2023/03/02 02:43:29;;;;;;;;;;;7.90;99.90;;;;;;4998266;28;19922;-64
2023/03/02 02:45:56;;;;;;;;;;;7.80;99.90;;;;;;4993932;28;19924;-62
2023/03/02 02:48:23;;;;;;;;;;;7.90;99.90;;;;;;4995357;28;19913;-65
2023/03/02 02:50:52;;;;;;;;;;;7.90;99.90;;;;;;5000323;28;19939;-64
2023/03/02 02:53:23;;;;;;;;;;;7.90;99.90;;;;;;5008265;28;19939;-66
2023/03/02 02:55:50;;;;;;;;;;;8.00;99.90;;;;;;5011469;28;19921;-64
2023/03/02 02:58:22;;;;;;;;;;;8.00;99.90;;;;;;5010793;28;19914;-64
2023/03/02 03:00:48;;;;;;;;;;;8.00;99.90;;;;;;5010606;28;19918;-65
2023/03/02 03:03:30;;;;;;;;;;;7.90;99.90;;;;;;5011101;28;19959;-64
2023/03/02 03:05:56;;;;;;;;;;;7.90;99.90;;;;;;5010504;28;19914;-65
2023/03/02 03:08:40;;;;;;;;;;;7.90;99.90;;;;;;5004600;28;19951;-65
2023/03/02 03:11:06;;;;;;;;;;;7.90;99.90;;;;;;5011613;28;19909;-63
2023/03/02 03:13:32;;;;;;;;;;;7.90;99.90;;;;;;5004320;28;19917;-65
2023/03/02 03:15:59;;;;;;;;;;;8.00;99.90;;;;;;4999470;28;19920;-64
2023/03/02 03:18:25;;;;;;;;;;;8.00;99.90;;;;;;5005118;28;19914;-64
2023/03/02 03:20:51;;;;;;;;;;;8.00;99.90;;;;;;4993372;28;19927;-65
2023/03/02 03:23:16;;;;;;;;;;;8.10;99.90;;;;;;4993297;28;19921;-64
2023/03/02 03:25:42;;;;;;;;;;;8.10;99.90;;;;;;5010826;28;19949;-63
2023/03/02 03:28:07;;;;;;;;;;;8.10;99.90;;;;;;4991512;28;19918;-65
2023/03/02 03:30:33;;;;;;;;;;;8.10;99.90;;;;;;4994050;28;19918;-65
2023/03/02 03:32:59;;;;;;;;;;;8.10;99.90;;;;;;4994877;28;19976;-64
2023/03/02 03:35:24;;;;;;;;;;;8.10;99.90;;;;;;4994896;28;19956;-65
2023/03/02 03:37:50;;;;;;;;;;;8.20;99.90;;;;;;4994582;28;19917;-65
2023/03/02 03:40:16;;;;;;;;;;;8.10;99.90;;;;;;4995382;28;19980;-64
2023/03/02 03:42:42;;;;;;;;;;;8.20;99.90;;;;;;5010866;28;19964;-62
2023/03/02 03:45:08;;;;;;;;;;;8.20;99.90;;;;;;5009595;28;20272;-65
2023/03/02 03:47:33;;;;;;;;;;;8.20;99.90;;;;;;4994515;28;19922;-65
2023/03/02 03:49:59;;;;;;;;;;;8.30;99.90;;;;;;4991702;28;19921;-66
2023/03/02 03:52:34;;;;;;;;;;;8.30;99.90;;;;;;4993858;28;20573;-65
2023/03/02 03:55:00;;;;;;;;;;;8.30;99.90;;;;;;4994907;28;20016;-64
2023/03/02 03:57:26;;;;;;;;;;;8.40;99.90;;;;;;4991629;28;19922;-66
2023/03/02 03:59:52;;;;;;;;;;;8.30;99.90;;;;;;4995435;28;19924;-65
2023/03/02 04:02:18;;;;;;;;;;;8.40;99.90;;;;;;4999751;28;19918;-63
2023/03/02 04:04:45;;;;;;;;;;;8.30;99.90;;;;;;4992800;28;19917;-66
2023/03/02 04:07:11;;;;;;;;;;;8.40;99.90;;;;;;4990870;28;19918;-64
2023/03/02 04:09:43;;;;;;;;;;;8.40;99.90;;;;;;5008981;28;19921;-64
2023/03/02 04:12:09;;;;;;;;;;;8.40;99.90;;;;;;5009956;28;20036;-65
2023/03/02 04:14:35;;;;;;;;;;;8.40;99.90;;;;;;4993839;28;21057;-65
2023/03/02 04:17:04;;;;;;;;;;;8.50;99.90;;;;;;4991699;28;19917;-68
2023/03/02 04:19:30;;;;;;;;;;;8.50;99.90;;;;;;4992208;28;20007;-65
2023/03/02 04:21:57;;;;;;;;;;;8.50;99.90;;;;;;4993289;28;19964;-64
2023/03/02 04:24:23;;;;;;;;;;;8.50;99.90;;;;;;5002319;28;19921;-63
2023/03/02 04:26:49;;;;;;;;;;;8.60;99.90;;;;;;4992344;28;20013;-66
2023/03/02 04:29:15;;;;;;;;;;;8.60;99.90;;;;;;4996468;28;19966;-62
2023/03/02 04:31:41;;;;;;;;;;;8.60;99.90;;;;;;5004263;28;19914;-64
2023/03/02 04:34:07;;;;;;;;;;;8.70;99.90;;;;;;4993091;28;19937;-65
2023/03/02 04:36:34;;;;;;;;;;;8.70;99.90;;;;;;4994351;28;20008;-65
2023/03/02 04:39:00;;;;;;;;;;;8.70;99.90;;;;;;4991250;28;19928;-65
2023/03/02 04:41:25;;;;;;;;;;;8.70;99.90;;;;;;4992555;28;19917;-65
2023/03/02 04:43:51;;;;;;;;;;;8.70;99.90;;;;;;4992551;28;19931;-65
2023/03/02 04:46:22;;;;;;;;;;;8.70;99.90;;;;;;4996247;28;19914;-64
2023/03/02 04:48:47;;;;;;;;;;;8.90;99.90;;;;;;4995624;28;20300;-64
2023/03/02 04:51:24;;;;;;;;;;;8.90;99.90;;;;;;4992853;28;19921;-66
2023/03/02 04:53:50;;;;;;;;;;;8.90;99.90;;;;;;4996461;28;19922;-64
2023/03/02 04:56:16;;;;;;;;;;;8.90;99.90;;;;;;4992400;28;20447;-65
2023/03/02 04:58:42;;;;;;;;;;;9.00;99.90;;;;;;4992957;28;20012;-65
2023/03/02 05:01:08;;;;;;;;;;;8.90;99.90;;;;;;5000526;28;19960;-62
2023/03/02 05:03:34;;;;;;;;;;;9.10;99.90;;;;;;4991218;28;19925;-65
2023/03/02 05:06:01;;;;;;;;;;;9.10;99.90;;;;;;4992765;28;19914;-65
2023/03/02 05:08:26;;;;;;;;;;;9.10;99.90;;;;;;4994326;28;19914;-63
2023/03/02 05:10:52;;;;;;;;;;;9.10;99.90;;;;;;4993290;28;19921;-64
2023/03/02 05:13:18;;;;;;;;;;;9.20;99.90;;;;;;4993011;28;19914;-64
2023/03/02 05:15:43;;;;;;;;;;;9.20;99.90;;;;;;4992749;28;19918;-65
2023/03/02 05:18:10;;;;;;;;;;;9.20;99.90;;;;;;4992216;28;20371;-64
2023/03/02 05:20:36;;;;;;;;;;;9.20;99.90;;;;;;4993094;28;19953;-66
2023/03/02 05:23:06;;;;;;;;;;;9.30;99.90;;;;;;4992703;28;19983;-64
2023/03/02 05:25:32;;;;;;;;;;;9.20;99.90;;;;;;4992395;28;19922;-66
2023/03/02 05:27:58;;;;;;;;;;;9.20;99.90;;;;;;4994058;28;19920;-64
2023/03/02 05:30:24;;;;;;;;;;;9.20;99.90;;;;;;4993450;28;19913;-64
2023/03/02 05:32:51;;;;;;;;;;;9.10;99.90;;;;;;4991384;28;20303;-65
2023/03/02 05:35:17;;;;;;;;;;;9.10;99.90;;;;;;4993951;28;20388;-65
2023/03/02 05:37:43;;;;;;;;;;;9.00;99.90;;;;;;5003148;28;20360;-64
2023/03/02 05:40:18;;;;;;;;;;;9.00;99.90;;;;;;4997365;28;19963;-65
2023/03/02 05:42:44;;;;;;;;;;;9.00;99.90;;;;;;5013183;28;19917;-64
2023/03/02 05:45:17;;;;;;;;;;;9.00;99.90;;;;;;5004882;28;20345;-66
2023/03/02 05:47:42;;;;;;;;;;;9.00;99.90;;;;;;4997921;28;19918;-66
2023/03/02 05:50:08;;;;;;;;;;;9.00;99.90;;;;;;4997672;28;20053;-64
2023/03/02 05:52:34;;;;;;;;;;;9.00;99.90;;;;;;4996891;28;19920;-67
2023/03/02 05:54:59;;;;;;;;;;;9.00;99.90;;;;;;4993860;28;20011;-66
2023/03/02 05:57:25;;;;;;;;;;;8.90;99.90;;;;;;4996897;28;19960;-66
2023/03/02 05:59:51;;;;;;;;;;;9.00;99.90;;;;;;5003856;28;19914;-66
2023/03/02 06:02:16;;;;;;;;;;;9.00;99.90;;;;;;4998116;28;19926;-64
2023/03/02 06:04:42;;;;;;;;;;;9.00;99.90;;;;;;4996999;28;19921;-65
2023/03/02 06:07:11;;;;;;;;;;;9.00;99.90;;;;;;5004179;28;19941;-66
2023/03/02 06:09:39;;;;;;;;;;;8.90;99.90;;;;;;4994119;28;19921;-64
2023/03/02 06:12:06;;;;;;;;;;;8.90;99.90;;;;;;5009456;28;19914;-66
2023/03/02 06:14:31;;;;;;;;;;;8.90;99.90;;;;;;4994420;28;19913;-64
2023/03/02 06:16:57;;;;;;;;;;;9.00;99.90;;;;;;4995794;28;19936;-65
2023/03/02 06:19:23;;;;;;;;;;;9.00;99.90;;;;;;4996451;28;19914;-65
2023/03/02 06:21:49;;;;;;;;;;;9.00;99.90;;;;;;4994395;28;19993;-66
2023/03/02 06:24:14;;;;;;;;;;;9.00;99.90;;;;;;4993392;28;19949;-64
2023/03/02 06:26:40;;;;;;;;;;;9.00;99.90;;;;;;4993939;28;20016;-65
2023/03/02 06:29:06;;;;;;;;;;;8.90;99.90;;;;;;4997969;28;20304;-65
2023/03/02 06:31:32;;;;;;;;;;;9.00;99.90;;;;;;4994860;28;19917;-65
2023/03/02 06:33:58;;;;;;;;;;;9.00;99.90;;;;;;5002770;28;19922;-66
2023/03/02 06:36:23;;;;;;;;;;;9.00;99.90;;;;;;4993758;28;20390;-65
2023/03/02 06:38:49;;;;;;;;;;;9.00;99.90;;;;;;4996358;28;20073;-65
2023/03/02 06:41:15;;;;;;;;;;;9.10;99.90;;;;;;4995889;28;19917;-61
2023/03/02 06:43:40;;;;;;;;;;;9.10;99.90;;;;;;4993406;28;19947;-65
2023/03/02 06:46:06;;;;;;;;;;;9.10;99.90;;;;;;4992689;28;19921;-65
2023/03/02 06:48:32;;;;;;;;;;;9.10;99.90;;;;;;4996571;28;20382;-64
2023/03/02 06:50:57;;;;;;;;;;;9.10;99.90;;;;;;4994290;28;19921;-64
2023/03/02 06:53:23;;;;;;;;;;;9.20;99.90;;;;;;4995000;28;19921;-65
2023/03/02 06:55:49;;;;;;;;;;;9.10;99.90;;;;;;4994385;28;19920;-64
2023/03/02 06:58:15;;;;;;;;;;;9.10;99.90;;;;;;4992574;28;20073;-65
2023/03/02 07:00:41;;;;;;;;;;;9.10;99.90;;;;;;4998821;28;20016;-65
2023/03/02 07:03:06;;;;;;;;;;;9.10;99.90;;;;;;4995944;28;19925;-65
2023/03/02 07:05:32;;;;;;;;;;;9.20;99.90;;;;;;4996694;28;20609;-63
2023/03/02 07:08:01;;;;;;;;;;;9.20;99.90;;;;;;4994244;28;19922;-65
2023/03/02 07:10:27;;;;;;;;;;;9.20;99.90;;;;;;4995245;28;19925;-65
2023/03/02 07:12:53;;;;;;;;;;;9.20;99.90;;;;;;4994921;28;19922;-65
2023/03/02 07:15:19;;;;;;;;;;;9.20;99.90;;;;;;4993561;28;19914;-66
2023/03/02 07:17:45;;;;;;;;;;;9.20;99.90;;;;;;4996984;28;20287;-65
2023/03/02 07:20:12;;;;;;;;;;;9.20;99.90;;;;;;4996380;28;19943;-64
2023/03/02 07:22:38;;;;;;;;;;;9.20;99.90;;;;;;5001957;28;19925;-66
2023/03/02 07:25:04;;;;;;;;;;;9.30;99.90;;;;;;4996942;28;20298;-66
2023/03/02 07:27:30;;;;;;;;;;;9.30;99.90;;;;;;4993108;28;19941;-66
2023/03/02 07:29:55;;;;;;;;;;;9.40;99.90;;;;;;4996279;28;20310;-65
2023/03/02 07:32:24;;;;;;;;;;;9.40;99.90;;;;;;4992795;28;19960;-65
2023/03/02 07:34:50;;;;;;;;;;;9.40;99.90;;;;;;4994035;28;19920;-66
2023/03/02 07:37:16;;;;;;;;;;;9.40;99.90;;;;;;4992424;28;19914;-66
2023/03/02 07:39:41;;;;;;;;;;;9.50;99.90;;;;;;4995381;28;19961;-66
2023/03/02 07:42:10;;;;;;;;;;;9.60;99.90;;;;;;4993326;28;19917;-66
2023/03/02 07:44:35;;;;;;;;;;;9.50;99.90;;;;;;4994982;28;19913;-65
2023/03/02 07:47:01;;;;;;;;;;;9.50;99.90;;;;;;5003727;28;19921;-66
2023/03/02 07:49:27;;;;;;;;;;;9.50;99.90;;;;;;4993649;28;19914;-66
2023/03/02 07:51:52;;;;;;;;;;;9.50;99.90;;;;;;4991860;28;19960;-68
2023/03/02 07:54:18;;;;;;;;;;;9.50;99.90;;;;;;5001888;28;19925;-64
2023/03/02 07:56:44;;;;;;;;;;;9.50;99.90;;;;;;4990765;28;20454;-64
2023/03/02 07:59:12;;;;;;;;;;;9.50;99.90;;;;;;4989895;28;19913;-65
2023/03/02 08:01:38;;;;;;;;;;;9.60;99.90;;;;;;4998952;28;19920;-66
2023/03/02 08:04:04;;;;;;;;;;;9.50;99.90;;;;;;4991701;28;19918;-67
2023/03/02 08:06:30;;;;;;;;;;;9.50;99.90;;;;;;4991900;28;19922;-68
2023/03/02 08:08:56;;;;;;;;;;;9.50;99.90;;;;;;5004898;28;19914;-65
2023/03/02 08:11:21;;;;;;;;;;;9.40;99.90;;;;;;5010699;28;19914;-65
2023/03/02 08:13:47;;;;;;;;;;;9.40;99.90;;;;;;5011461;28;19925;-66
2023/03/02 08:16:14;;;;;;;;;;;9.50;99.90;;;;;;5012463;28;19910;-66
2023/03/02 08:18:41;;;;;;;;;;;9.60;99.90;;;;;;5011047;28;20052;-65
2023/03/02 08:21:14;;;;;;;;;;;9.70;99.90;;;;;;5013649;28;19921;-64
2023/03/02 08:23:43;;;;;;;;;;;9.70;99.90;;;;;;5008859;28;19940;-68
2023/03/02 08:26:08;;;;;;;;;;;9.70;99.90;;;;;;5012009;28;20406;-69
2023/03/02 08:28:34;;;;;;;;;;;9.80;99.90;;;;;;5011270;28;19925;-69
2023/03/02 08:31:00;;;;;;;;;;;9.90;99.90;;;;;;5009388;28;20383;-69
2023/03/02 08:33:26;;;;;;;;;;;9.90;99.90;;;;;;5010182;28;19944;-67
2023/03/02 08:36:03;;;;;;;;;;;9.90;99.90;;;;;;5011777;28;19924;-69
2023/03/02 08:38:29;;;;;;;;;;;10.00;99.90;;;;;;5010436;28;19921;-70
2023/03/02 08:40:55;;;;;;;;;;;10.00;99.90;;;;;;5010169;28;19918;-69
2023/03/02 08:43:22;;;;;;;;;;;10.00;99.90;;;;;;5010710;28;19918;-69
2023/03/02 08:45:55;;;;;;;;;;;10.00;99.90;;;;;;5012088;28;19913;-67
2023/03/02 08:48:21;;;;;;;;;;;10.00;99.90;;;;;;5007378;28;19994;-67
2023/03/02 08:50:57;;;;;;;;;;;10.00;99.90;;;;;;5012524;28;19917;-64
2023/03/02 08:53:23;;;;;;;;;;;10.00;99.90;;;;;;5009508;28;19917;-69
2023/03/02 08:55:48;;;;;;;;;;;10.00;99.90;;;;;;5011990;28;19921;-69
2023/03/02 08:58:14;;;;;;;;;;;9.90;99.90;;;;;;5012350;28;19909;-68
2023/03/02 09:00:40;;;;;;;;;;;9.80;99.90;;;;;;5011225;28;19913;-68
2023/03/02 09:03:05;;;;;;;;;;;9.80;99.90;;;;;;5011231;28;19925;-67
2023/03/02 09:05:31;;;;;;;;;;;9.90;99.90;;;;;;5012248;28;19910;-68
2023/03/02 09:07:56;;;;;;;;;;;10.00;99.90;;;;;;5012038;28;20437;-69
2023/03/02 09:10:22;;;;;;;;;;;10.10;99.90;;;;;;5012719;28;19914;-67
2023/03/02 09:12:48;;;;;;;;;;;10.10;99.90;;;;;;5015305;28;19917;-66
2023/03/02 09:15:13;;;;;;;;;;;10.20;99.90;;;;;;5016187;28;20012;-68
2023/03/02 09:17:39;;;;;;;;;;;10.20;99.90;;;;;;5015946;28;19909;-69
2023/03/02 09:20:05;;;;;;;;;;;10.30;99.90;;;;;;5012864;28;20009;-68
2023/03/02 09:22:31;;;;;;;;;;;10.40;99.90;;;;;;5014512;28;19957;-68
2023/03/02 09:24:56;;;;;;;;;;;10.40;99.90;;;;;;5015799;28;19963;-68
2023/03/02 09:27:22;;;;;;;;;;;10.40;99.90;;;;;;5014551;28;19917;-68
2023/03/02 09:29:48;;;;;;;;;;;10.50;99.90;;;;;;5015583;28;19936;-67
2023/03/02 09:32:14;;;;;;;;;;;10.50;99.90;;;;;;5015728;28;19964;-69
2023/03/02 09:34:40;;;;;;;;;;;10.50;99.90;;;;;;5014446;28;19921;-67
2023/03/02 09:37:06;;;;;;;;;;;10.50;99.90;;;;;;5015310;28;19909;-68
2023/03/02 09:39:31;;;;;;;;;;;10.60;99.90;;;;;;5014005;28;20056;-70
2023/03/02 09:42:03;;;;;;;;;;;10.70;99.90;;;;;;5015640;28;19948;-68
2023/03/02 09:44:41;;;;;;;;;;;10.70;99.90;;;;;;5014668;28;19936;-69
2023/03/02 09:47:15;;;;;;;;;;;10.70;99.90;;;;;;5015502;28;19940;-68
2023/03/02 09:49:59;;;;;;;;;;;10.70;99.90;;;;;;5008254;28;19914;-69
2023/03/02 09:52:31;;;;;;;;;;;10.80;99.90;;;;;;5012834;28;19959;-69
2023/03/02 09:55:00;;;;;;;;;;;10.90;99.90;;;;;;5014150;28;19922;-70
2023/03/02 09:57:30;;;;;;;;;;;11.00;99.90;;;;;;5014590;28;20003;-69
2023/03/02 09:59:58;;;;;;;;;;;11.10;99.90;;;;;;5013495;28;19914;-68
2023/03/02 10:02:26;;;;;;;;;;;11.10;99.90;;;;;;5007169;28;20599;-69
2023/03/02 10:04:53;;;;;;;;;;;11.10;99.90;;;;;;5007885;28;19917;-70
2023/03/02 10:07:24;;;;;;;;;;;11.20;99.90;;;;;;5009392;28;19976;-69
2023/03/02 10:09:49;;;;;;;;;;;11.40;99.90;;;;;;5008042;28;20550;-69
2023/03/02 10:12:15;;;;;;;;;;;11.50;99.90;;;;;;5012062;28;19913;-68
2023/03/02 10:14:48;;;;;;;;;;;11.50;99.90;;;;;;5011591;28;19909;-69
2023/03/02 10:17:22;;;;;;;;;;;11.60;99.90;;;;;;5013525;28;19976;-69
2023/03/02 10:19:52;;;;;;;;;;;11.70;99.90;;;;;;5008675;28;19920;-67
2023/03/02 10:22:24;;;;;;;;;;;11.90;99.90;;;;;;5011819;28;19917;-71
2023/03/02 10:25:02;;;;;;;;;;;12.00;99.90;;;;;;5007117;28;19949;-69
2023/03/02 10:27:39;;;;;;;;;;;11.90;99.90;;;;;;5013371;28;19960;-69
2023/03/02 10:30:10;;;;;;;;;;;11.90;99.90;;;;;;5012294;28;19920;-69
2023/03/02 10:32:45;;;;;;;;;;;11.70;99.90;;;;;;5005056;28;20112;-67
2023/03/02 10:35:13;;;;;;;;;;;11.70;99.90;;;;;;5013327;28;20004;-69
2023/03/02 10:37:38;;;;;;;;;;;11.80;99.90;;;;;;5007257;28;19910;-69
2023/03/02 10:40:04;;;;;;;;;;;11.70;99.90;;;;;;5011166;28;19924;-69
2023/03/02 10:42:32;;;;;;;;;;;11.70;99.90;;;;;;5012908;28;19925;-70
2023/03/02 10:45:05;;;;;;;;;;;11.70;99.90;;;;;;5014071;28;19917;-69
2023/03/02 10:47:30;;;;;;;;;;;11.70;99.90;;;;;;5009930;28;19965;-68
2023/03/02 10:49:56;;;;;;;;;;;11.60;99.90;;;;;;5010976;28;19914;-70
2023/03/02 10:52:26;;;;;;;;;;;11.70;99.90;;;;;;5007653;28;19913;-70
2023/03/02 10:55:02;;;;;;;;;;;11.70;99.90;;;;;;5008678;28;20404;-76
2023/03/02 10:57:38;;;;;;;;;;;11.80;99.90;;;;;;5011578;28;19940;-70
2023/03/02 11:00:04;;;;;;;;;;;11.80;99.90;;;;;;5012497;28;20275;-71
2023/03/02 11:02:31;;;;;;;;;;;11.80;99.90;;;;;;5011536;28;19925;-67
2023/03/02 11:05:18;;;;;;;;;;;11.90;99.90;;;;;;5007832;28;20294;-69
2023/03/02 11:08:01;;;;;;;;;;;11.90;99.90;;;;;;5005964;28;19997;-70
2023/03/02 11:10:45;;;;;;;;;;;11.90;99.90;;;;;;5012578;28;19917;-67
2023/03/02 11:13:17;;;;;;;;;;;11.90;99.90;;;;;;5007591;28;19929;-69
2023/03/02 11:15:44;;;;;;;;;;;11.90;99.90;;;;;;5013974;28;19967;-69
2023/03/02 11:18:10;;;;;;;;;;;11.90;99.90;;;;;;5005991;28;19936;-69
2023/03/02 11:20:43;;;;;;;;;;;11.80;99.90;;;;;;5002754;28;19913;-68
2023/03/02 11:23:20;;;;;;;;;;;11.70;99.90;;;;;;5009375;28;19917;-70
2023/03/02 11:25:49;;;;;;;;;;;11.80;99.90;;;;;;5013629;28;20687;-71
2023/03/02 11:28:21;;;;;;;;;;;11.80;99.90;;;;;;5005448;28;20087;-71
2023/03/02 11:30:48;;;;;;;;;;;11.80;99.90;;;;;;5007290;28;20447;-70
2023/03/02 11:33:18;;;;;;;;;;;11.80;99.90;;;;;;5010654;28;20063;-69
2023/03/02 11:35:51;;;;;;;;;;;12.00;99.90;;;;;;5011884;28;19959;-71
2023/03/02 11:38:23;;;;;;;;;;;12.00;99.90;;;;;;5010213;28;20000;-70
2023/03/02 11:41:01;;;;;;;;;;;12.00;99.90;;;;;;5007742;28;20005;-69
2023/03/02 11:43:27;;;;;;;;;;;12.10;99.90;;;;;;5004442;28;19940;-69
2023/03/02 11:46:02;;;;;;;;;;;12.10;99.90;;;;;;5012434;28;19913;-69
2023/03/02 11:48:30;;;;;;;;;;;12.10;99.90;;;;;;5009302;28;19936;-69
2023/03/02 11:50:57;;;;;;;;;;;12.10;99.90;;;;;;5007557;28;19995;-69
2023/03/02 11:53:26;;;;;;;;;;;12.10;99.90;;;;;;5009546;28;20382;-69
2023/03/02 11:55:52;;;;;;;;;;;12.00;99.90;;;;;;5013162;28;20340;-69
2023/03/02 11:58:19;;;;;;;;;;;11.90;99.90;;;;;;5001395;28;20095;-69
2023/03/02 12:00:46;;;;;;;;;;;12.00;99.90;;;;;;5012458;28;19956;-70
2023/03/02 12:03:15;;;;;;;;;;;12.10;99.90;;;;;;5010981;28;19922;-68
2023/03/02 12:06:01;;;;;;;;;;;12.10;99.90;;;;;;5012197;28;19920;-69
2023/03/02 12:08:26;;;;;;;;;;;12.20;99.90;;;;;;5009614;28;19914;-71
2023/03/02 12:11:00;;;;;;;;;;;12.20;99.90;;;;;;5015729;28;20024;-69
2023/03/02 12:13:28;;;;;;;;;;;12.20;99.90;;;;;;5016065;28;20973;-70
2023/03/02 12:15:57;;;;;;;;;;;12.30;99.90;;;;;;5016999;28;19976;-69
2023/03/02 12:18:23;;;;;;;;;;;12.30;99.90;;;;;;5014610;28;19917;-69
2023/03/02 12:21:01;;;;;;;;;;;12.40;99.90;;;;;;5013514;28;19920;-69
2023/03/02 12:23:28;;;;;;;;;;;12.40;99.90;;;;;;5013456;28;19917;-69
2023/03/02 12:26:01;;;;;;;;;;;12.40;99.90;;;;;;5015071;28;19913;-69
2023/03/02 12:28:28;;;;;;;;;;;12.50;99.90;;;;;;5012154;28;19921;-68
2023/03/02 12:31:23;;;;;;;;;;;12.60;99.90;;;;;;5014314;28;19952;-70
2023/03/02 12:33:51;;;;;;;;;;;12.70;99.90;;;;;;5004888;28;19913;-69
2023/03/02 12:36:28;;;;;;;;;;;12.70;99.90;;;;;;5015461;28;19909;-70
2023/03/02 12:39:00;;;;;;;;;;;12.70;99.90;;;;;;5008175;28;19968;-71
2023/03/02 12:41:29;;;;;;;;;;;12.70;99.90;;;;;;5006583;28;19925;-69
2023/03/02 12:43:55;;;;;;;;;;;12.70;99.90;;;;;;5011972;28;20451;-69
2023/03/02 12:46:26;;;;;;;;;;;12.60;99.90;;;;;;5013285;28;19953;-70
2023/03/02 12:48:58;;;;;;;;;;;12.60;99.90;;;;;;5010282;28;20003;-69
2023/03/02 12:51:25;;;;;;;;;;;12.50;99.90;;;;;;5014842;28;19941;-69
2023/03/02 12:54:11;;;;;;;;;;;12.40;99.90;;;;;;5015093;28;19971;-70
2023/03/02 12:56:37;;;;;;;;;;;12.30;99.90;;;;;;5009552;28;19964;-69
2023/03/02 12:59:02;;;;;;;;;;;12.30;99.90;;;;;;5011765;28;19918;-69
2023/03/02 13:01:29;;;;;;;;;;;12.30;99.90;;;;;;5012420;28;19953;-71
2023/03/02 13:03:55;;;;;;;;;;;12.30;99.90;;;;;;5008622;28;19971;-74
2023/03/02 13:06:22;;;;;;;;;;;12.40;99.90;;;;;;5014239;28;19914;-73
2023/03/02 13:08:53;;;;;;;;;;;12.50;99.90;;;;;;5004285;28;20354;-70
2023/03/02 13:11:26;;;;;;;;;;;12.50;99.90;;;;;;5013474;28;19914;-69
2023/03/02 13:13:52;;;;;;;;;;;12.60;99.90;;;;;;5013681;28;20434;-69
2023/03/02 13:16:22;;;;;;;;;;;12.60;99.90;;;;;;5013760;28;19921;-70
2023/03/02 13:18:48;;;;;;;;;;;12.50;99.90;;;;;;5006375;28;19984;-69
2023/03/02 13:21:15;;;;;;;;;;;12.50;99.90;;;;;;5010471;28;19983;-69
2023/03/02 13:23:50;;;;;;;;;;;12.50;99.90;;;;;;5006863;28;19917;-69
2023/03/02 13:26:23;;;;;;;;;;;12.30;99.90;;;;;;5010337;28;19920;-69
2023/03/02 13:28:58;;;;;;;;;;;12.20;99.90;;;;;;5014503;28;19936;-69
2023/03/02 13:31:24;;;;;;;;;;;12.20;99.90;;;;;;5006902;28;19914;-69
2023/03/02 13:33:51;;;;;;;;;;;12.20;99.90;;;;;;5005058;28;19943;-69
2023/03/02 13:36:18;;;;;;;;;;;12.10;99.90;;;;;;5004836;28;19913;-70
2023/03/02 13:38:46;;;;;;;;;;;12.20;99.90;;;;;;5007217;28;20024;-70
2023/03/02 13:41:19;;;;;;;;;;;12.30;99.90;;;;;;5012374;28;19917;-70
2023/03/02 13:43:45;;;;;;;;;;;12.40;99.90;;;;;;5011971;28;19921;-70
2023/03/02 13:46:11;;;;;;;;;;;12.40;99.90;;;;;;5002346;28;19913;-69
2023/03/02 13:48:36;;;;;;;;;;;12.50;99.90;;;;;;5007041;28;20367;-69
2023/03/02 13:51:13;;;;;;;;;;;12.50;99.90;;;;;;5009291;28;19923;-71
2023/03/02 13:53:40;;;;;;;;;;;12.40;99.90;;;;;;5009653;28;19925;-71
2023/03/02 13:56:16;;;;;;;;;;;12.30;99.90;;;;;;5010433;28;19968;-69
2023/03/02 13:58:41;;;;;;;;;;;12.30;99.90;;;;;;5005172;28;20000;-70
2023/03/02 14:01:08;;;;;;;;;;;12.40;99.90;;;;;;5010777;28;19965;-68
2023/03/02 14:03:34;;;;;;;;;;;12.30;99.90;;;;;;5012542;28;20392;-69
2023/03/02 14:06:00;;;;;;;;;;;12.30;99.90;;;;;;5010547;28;19945;-67
2023/03/02 14:08:25;;;;;;;;;;;12.30;99.90;;;;;;5013275;28;19913;-69
2023/03/02 14:10:52;;;;;;;;;;;12.20;99.90;;;;;;5023627;28;19953;-70
2023/03/02 14:13:32;;;;;;;;;;;12.20;99.90;;;;;;5015853;28;19913;-69
2023/03/02 14:15:58;;;;;;;;;;;12.20;99.90;;;;;;5009185;28;20365;-68
2023/03/02 14:18:29;;;;;;;;;;;12.10;99.90;;;;;;5010198;28;19929;-76
2023/03/02 14:20:55;;;;;;;;;;;12.10;99.90;;;;;;5005252;28;19913;-70
2023/03/02 14:23:22;;;;;;;;;;;12.20;99.90;;;;;;5002714;28;19947;-70
2023/03/02 14:25:49;;;;;;;;;;;12.10;99.90;;;;;;5000782;28;19928;-69
2023/03/02 14:28:19;;;;;;;;;;;12.10;99.90;;;;;;5000976;28;19961;-68
2023/03/02 14:30:45;;;;;;;;;;;12.20;99.90;;;;;;5014914;28;19917;-69